Time;durP1;ratioP1;P1;durP2;ratioP2;P2;SDS_P1;SDS_P2;PMS_P1;PMS_P2;Temp;Humidity;BMP_temperature;BMP_pressure;BME280_temperature;BME280_humidity;BME280_pressure;Samples;Min_cycle;Max_cycle;Signal;HPM_P1;HPM_P2
2023/08/09 00:01:39;;;;;;;5.27;4.77;;;16.80;99.90;;;;;;5034086;28;20489;-58
2023/08/09 00:04:06;;;;;;;6.10;4.63;;;16.80;99.90;;;;;;5034246;28;20773;-58
2023/08/09 00:06:33;;;;;;;5.90;4.70;;;16.80;99.90;;;;;;5034135;28;20460;-58
2023/08/09 00:09:00;;;;;;;5.53;4.40;;;16.80;99.90;;;;;;5034117;28;20489;-58
2023/08/09 00:11:27;;;;;;;6.50;5.20;;;16.80;99.90;;;;;;5034128;28;20470;-58
2023/08/09 00:13:53;;;;;;;9.97;5.43;;;16.80;99.90;;;;;;5034181;28;20457;-58
2023/08/09 00:16:21;;;;;;;9.73;5.27;;;16.80;99.90;;;;;;5034151;28;20447;-57
2023/08/09 00:18:48;;;;;;;8.10;5.17;;;16.80;99.90;;;;;;5033960;28;20446;-56
2023/08/09 00:21:15;;;;;;;5.83;5.20;;;16.80;99.90;;;;;;5033907;28;20469;-56
2023/08/09 00:23:41;;;;;;;5.73;5.10;;;16.80;99.90;;;;;;5033883;28;20452;-56
2023/08/09 00:26:08;;;;;;;5.60;5.00;;;16.80;99.90;;;;;;5033558;28;20940;-56
2023/08/09 00:28:35;;;;;;;8.60;5.80;;;16.80;99.90;;;;;;5033695;28;20566;-57
2023/08/09 00:31:03;;;;;;;7.30;5.10;;;16.80;99.90;;;;;;5033301;28;20834;-57
2023/08/09 00:33:31;;;;;;;6.50;4.90;;;16.80;99.90;;;;;;5033732;28;20537;-57
2023/08/09 00:35:57;;;;;;;9.67;5.03;;;16.80;99.90;;;;;;5033643;28;20458;-58
2023/08/09 00:38:24;;;;;;;5.80;5.20;;;16.80;99.90;;;;;;5033674;28;20439;-58
2023/08/09 00:40:51;;;;;;;6.30;5.37;;;16.80;99.90;;;;;;5034083;28;20473;-58
2023/08/09 00:43:17;;;;;;;6.53;5.87;;;16.70;99.90;;;;;;5033549;28;20450;-58
2023/08/09 00:45:46;;;;;;;7.20;5.97;;;16.70;99.90;;;;;;5033556;28;20453;-58
2023/08/09 00:48:13;;;;;;;6.90;6.07;;;16.80;99.90;;;;;;5033465;28;20623;-57
2023/08/09 00:50:41;;;;;;;7.80;6.40;;;16.80;99.90;;;;;;5033517;28;20466;-58
2023/08/09 00:53:08;;;;;;;7.13;6.43;;;16.90;99.90;;;;;;5033524;28;20810;-58
2023/08/09 00:55:35;;;;;;;8.20;6.27;;;16.80;99.90;;;;;;5033437;28;20446;-58
2023/08/09 00:58:02;;;;;;;9.20;6.20;;;16.90;99.90;;;;;;5033424;28;20442;-58
2023/08/09 01:00:28;;;;;;;8.90;7.10;;;16.90;99.90;;;;;;5033407;28;20494;-57
2023/08/09 01:02:55;;;;;;;10.73;6.10;;;16.90;99.90;;;;;;5032410;28;20944;-58
2023/08/09 01:05:27;;;;;;;7.87;5.40;;;16.80;99.90;;;;;;5033024;28;20446;-58
2023/08/09 01:08:05;;;;;;;8.53;6.63;;;16.90;99.90;;;;;;5032984;28;20433;-56
2023/08/09 01:10:35;;;;;;;9.13;6.50;;;16.90;99.90;;;;;;5033225;28;20482;-56
2023/08/09 01:13:04;;;;;;;7.50;5.90;;;16.90;99.90;;;;;;5033266;28;20446;-56
2023/08/09 01:15:33;;;;;;;2.77;1.90;;;17.00;99.90;;;;;;5033044;28;20434;-56
2023/08/09 01:18:01;;;;;;;1.43;1.33;;;17.00;99.90;;;;;;5033224;28;20449;-56
2023/08/09 01:20:28;;;;;;;2.00;1.70;;;17.10;99.90;;;;;;5033117;28;20466;-56
2023/08/09 01:23:02;;;;;;;1.70;1.60;;;17.10;99.90;;;;;;5033136;28;20438;-56
2023/08/09 01:25:31;;;;;;;3.20;2.03;;;17.10;99.90;;;;;;5033111;28;20430;-56
2023/08/09 01:27:59;;;;;;;2.23;1.90;;;17.10;99.90;;;;;;5033081;28;20445;-56
2023/08/09 01:30:26;;;;;;;2.47;2.37;;;17.10;99.90;;;;;;5033005;28;20478;-56
2023/08/09 01:32:52;;;;;;;2.47;2.27;;;17.20;99.90;;;;;;5033057;28;20442;-57
2023/08/09 01:35:19;;;;;;;4.57;3.10;;;17.10;99.90;;;;;;5032699;28;20446;-57
2023/08/09 01:37:52;;;;;;;3.17;2.67;;;17.20;99.90;;;;;;5033819;28;20204;-57
2023/08/09 01:40:20;;;;;;;2.80;2.60;;;17.10;99.90;;;;;;5032635;28;20903;-57
2023/08/09 01:42:51;;;;;;;2.70;2.50;;;17.10;99.90;;;;;;5032721;28;20819;-57
2023/08/09 01:45:19;;;;;;;2.83;2.50;;;17.10;99.90;;;;;;5033017;28;20462;-57
2023/08/09 01:47:46;;;;;;;5.67;2.57;;;17.10;99.90;;;;;;5032553;28;20500;-58
2023/08/09 01:50:21;;;;;;;2.33;2.10;;;17.20;99.90;;;;;;5032713;28;20489;-57
2023/08/09 01:52:48;;;;;;;2.20;2.00;;;17.10;99.90;;;;;;5032973;28;20438;-57
2023/08/09 01:55:17;;;;;;;2.07;1.87;;;17.20;99.90;;;;;;5032830;28;20454;-57
2023/08/09 01:57:45;;;;;;;3.20;2.93;;;17.20;99.90;;;;;;5032492;28;20987;-57
2023/08/09 02:00:18;;;;;;;3.10;2.80;;;17.20;99.90;;;;;;5032739;28;20886;-58
2023/08/09 02:02:45;;;;;;;2.50;2.30;;;17.20;99.90;;;;;;5032513;28;20535;-59
2023/08/09 02:05:12;;;;;;;3.30;2.50;;;17.30;99.90;;;;;;5032751;28;20442;-59
2023/08/09 02:07:39;;;;;;;3.50;2.20;;;17.20;99.90;;;;;;5032765;28;20457;-58
2023/08/09 02:10:07;;;;;;;2.60;2.40;;;17.20;99.90;;;;;;5032315;28;20911;-58
2023/08/09 02:12:34;;;;;;;3.27;2.30;;;17.30;99.90;;;;;;5032401;28;20447;-58
2023/08/09 02:15:01;;;;;;;2.90;1.87;;;17.30;99.90;;;;;;5033671;28;20446;-59
2023/08/09 02:17:29;;;;;;;2.63;2.30;;;17.30;99.90;;;;;;5036240;28;20439;-58
2023/08/09 02:19:56;;;;;;;5.40;1.93;;;17.30;99.90;;;;;;5036068;28;20466;-58
2023/08/09 02:22:23;;;;;;;2.00;1.90;;;17.20;99.90;;;;;;5036171;28;20486;-58
2023/08/09 02:24:49;;;;;;;1.90;1.80;;;17.20;99.90;;;;;;5036101;28;20500;-57
2023/08/09 02:27:16;;;;;;;1.97;1.87;;;17.30;99.90;;;;;;5036785;28;20449;-56
2023/08/09 02:29:43;;;;;;;1.70;1.60;;;17.20;99.90;;;;;;5035837;28;20505;-55
2023/08/09 02:32:10;;;;;;;2.50;2.30;;;17.20;99.90;;;;;;5035963;28;20446;-55
2023/08/09 02:34:41;;;;;;;2.07;1.80;;;17.20;99.90;;;;;;5035928;28;20824;-56
2023/08/09 02:37:07;;;;;;;2.63;2.07;;;17.10;99.90;;;;;;5035841;28;20437;-57
2023/08/09 02:39:34;;;;;;;2.30;2.20;;;17.10;99.90;;;;;;5035921;28;20500;-57
2023/08/09 02:42:01;;;;;;;2.07;1.90;;;17.10;99.90;;;;;;5035734;28;20451;-58
2023/08/09 02:44:29;;;;;;;2.43;2.03;;;17.10;99.90;;;;;;5035842;28;20450;-58
2023/08/09 02:46:56;;;;;;;2.57;2.03;;;17.10;99.90;;;;;;5035668;28;20454;-58
2023/08/09 02:49:23;;;;;;;1.83;1.73;;;17.10;99.90;;;;;;5035528;28;20590;-58
2023/08/09 02:51:51;;;;;;;2.20;2.00;;;17.10;99.90;;;;;;5035540;28;20470;-59
2023/08/09 02:54:17;;;;;;;2.33;2.13;;;17.10;99.90;;;;;;5035606;28;20453;-59
2023/08/09 02:56:44;;;;;;;2.23;1.80;;;17.10;99.90;;;;;;5035543;28;20450;-59
2023/08/09 02:59:11;;;;;;;2.90;2.63;;;17.00;99.90;;;;;;5035500;28;20446;-58
2023/08/09 03:01:37;;;;;;;2.00;1.90;;;17.00;99.90;;;;;;5035242;28;20470;-57
2023/08/09 03:04:04;;;;;;;2.20;2.00;;;17.00;99.90;;;;;;5035391;28;20431;-57
2023/08/09 03:06:31;;;;;;;3.37;2.50;;;16.90;99.90;;;;;;5035360;28;20451;-58
2023/08/09 03:09:01;;;;;;;2.47;2.00;;;16.90;99.90;;;;;;5035247;28;20454;-57
2023/08/09 03:11:28;;;;;;;3.13;2.50;;;17.00;99.90;;;;;;5035446;28;20553;-57
2023/08/09 03:13:55;;;;;;;2.10;2.00;;;17.00;99.90;;;;;;5036020;28;20450;-57
2023/08/09 03:16:22;;;;;;;2.60;2.40;;;17.00;99.90;;;;;;5035254;28;20449;-58
2023/08/09 03:18:49;;;;;;;9.63;4.60;;;17.00;99.90;;;;;;5035289;28;20484;-58
2023/08/09 03:21:15;;;;;;;2.77;2.57;;;17.00;99.90;;;;;;5035092;28;20462;-58
2023/08/09 03:23:42;;;;;;;2.23;2.13;;;17.00;99.90;;;;;;5034807;28;20940;-58
2023/08/09 03:26:11;;;;;;;2.60;2.40;;;17.00;99.90;;;;;;5034667;28;20446;-58
2023/08/09 03:28:37;;;;;;;2.33;2.20;;;17.00;99.90;;;;;;5035315;28;20450;-58
2023/08/09 03:31:04;;;;;;;2.40;2.20;;;17.00;99.90;;;;;;5035313;28;20490;-58
2023/08/09 03:33:31;;;;;;;3.50;2.23;;;17.00;99.90;;;;;;5035063;28;20446;-58
2023/08/09 03:35:58;;;;;;;3.00;2.80;;;17.00;99.90;;;;;;5035345;28;20469;-58
2023/08/09 03:38:25;;;;;;;2.40;2.20;;;17.10;99.90;;;;;;5035048;28;20447;-58
2023/08/09 03:40:52;;;;;;;5.20;2.50;;;17.00;99.90;;;;;;5034807;28;20466;-59
2023/08/09 03:43:20;;;;;;;2.07;1.97;;;17.10;99.90;;;;;;5034638;28;20442;-59
2023/08/09 03:45:47;;;;;;;2.40;2.30;;;17.00;99.90;;;;;;5034825;28;20450;-59
2023/08/09 03:48:13;;;;;;;2.30;2.10;;;17.00;99.90;;;;;;5034737;28;20442;-59
2023/08/09 03:50:40;;;;;;;2.53;2.43;;;17.00;99.90;;;;;;5034594;28;20509;-59
2023/08/09 03:53:07;;;;;;;2.20;2.10;;;17.00;99.90;;;;;;5034619;28;20460;-59
2023/08/09 03:55:34;;;;;;;2.60;2.40;;;17.00;99.90;;;;;;5034455;28;20927;-59
2023/08/09 03:58:00;;;;;;;2.83;2.63;;;17.00;99.90;;;;;;5034713;28;20443;-59
2023/08/09 04:00:28;;;;;;;2.63;2.43;;;17.00;99.90;;;;;;5034778;28;20491;-59
2023/08/09 04:02:56;;;;;;;2.60;2.40;;;17.00;99.90;;;;;;5034120;28;20454;-59
2023/08/09 04:05:23;;;;;;;2.83;2.53;;;17.00;99.90;;;;;;5034275;28;20450;-59
2023/08/09 04:07:50;;;;;;;3.87;2.43;;;17.00;99.90;;;;;;5034273;28;20551;-59
2023/08/09 04:10:17;;;;;;;3.03;2.67;;;17.00;99.90;;;;;;5034138;28;20486;-59
2023/08/09 04:12:44;;;;;;;2.30;2.10;;;17.00;99.90;;;;;;5034336;28;20442;-60
2023/08/09 04:15:11;;;;;;;3.50;3.20;;;17.00;99.90;;;;;;5034042;28;20819;-59
2023/08/09 04:17:39;;;;;;;3.07;2.87;;;17.00;99.90;;;;;;5034090;28;20446;-59
2023/08/09 04:20:11;;;;;;;3.27;3.07;;;16.90;99.90;;;;;;5034018;28;20837;-59
2023/08/09 04:22:38;;;;;;;3.97;3.57;;;16.90;99.90;;;;;;5034122;28;20433;-59
2023/08/09 04:25:05;;;;;;;3.40;3.10;;;16.90;99.90;;;;;;5034060;28;20443;-59
2023/08/09 04:27:33;;;;;;;3.67;3.30;;;16.80;99.90;;;;;;5033850;28;20442;-59
2023/08/09 04:30:02;;;;;;;4.50;4.20;;;16.80;99.90;;;;;;5033598;28;20525;-59
2023/08/09 04:32:29;;;;;;;3.80;3.50;;;16.80;99.90;;;;;;5033726;28;20794;-59
2023/08/09 04:34:57;;;;;;;3.57;3.27;;;16.90;99.90;;;;;;5033719;28;20477;-59
2023/08/09 04:37:24;;;;;;;3.90;3.50;;;16.90;99.90;;;;;;5033592;28;20443;-59
2023/08/09 04:39:52;;;;;;;3.87;3.10;;;16.90;99.90;;;;;;5033589;28;20477;-59
2023/08/09 04:42:19;;;;;;;4.37;3.97;;;16.90;99.90;;;;;;5033664;28;20453;-59
2023/08/09 04:44:46;;;;;;;4.13;3.73;;;16.90;99.90;;;;;;5033691;28;20458;-59
2023/08/09 04:47:13;;;;;;;3.90;3.50;;;17.00;99.90;;;;;;5034111;28;20444;-59
2023/08/09 04:49:39;;;;;;;3.93;3.53;;;17.00;99.90;;;;;;5033339;28;20528;-59
2023/08/09 04:52:08;;;;;;;5.03;3.00;;;17.00;99.90;;;;;;5033468;28;20439;-59
2023/08/09 04:54:35;;;;;;;6.17;3.30;;;17.00;99.90;;;;;;5033455;28;20531;-59
2023/08/09 04:57:01;;;;;;;4.03;3.73;;;17.10;99.90;;;;;;5033008;28;20967;-59
2023/08/09 04:59:28;;;;;;;3.93;3.63;;;17.10;99.90;;;;;;5033311;28;20458;-59
2023/08/09 05:01:55;;;;;;;4.10;3.70;;;17.10;99.90;;;;;;5032987;28;20486;-59
2023/08/09 05:04:21;;;;;;;4.93;4.13;;;17.10;99.90;;;;;;5033360;28;20794;-59
2023/08/09 05:06:48;;;;;;;5.63;4.00;;;17.10;99.90;;;;;;5032975;28;20807;-59
2023/08/09 05:09:16;;;;;;;4.30;4.00;;;17.10;99.90;;;;;;5032914;28;20936;-59
2023/08/09 05:11:42;;;;;;;4.13;3.77;;;17.10;99.90;;;;;;5033152;28;20490;-59
2023/08/09 05:14:09;;;;;;;4.60;4.20;;;17.10;99.90;;;;;;5033203;28;20447;-59
2023/08/09 05:16:36;;;;;;;3.60;3.20;;;17.10;99.90;;;;;;5033255;28;20473;-59
2023/08/09 05:19:03;;;;;;;4.27;3.87;;;17.10;99.90;;;;;;5033127;28;20446;-59
2023/08/09 05:21:29;;;;;;;7.30;3.80;;;17.10;99.90;;;;;;5033110;28;20462;-59
2023/08/09 05:23:56;;;;;;;4.30;3.97;;;17.20;99.90;;;;;;5033156;28;20442;-59
2023/08/09 05:26:24;;;;;;;5.63;4.07;;;17.20;99.90;;;;;;5033164;28;20443;-59
2023/08/09 05:28:51;;;;;;;5.37;4.30;;;17.20;99.90;;;;;;5033116;28;20442;-59
2023/08/09 05:31:18;;;;;;;3.93;3.47;;;17.20;99.90;;;;;;5032910;28;20540;-59
2023/08/09 05:33:45;;;;;;;4.70;3.80;;;17.30;99.90;;;;;;5032826;28;20465;-58
2023/08/09 05:36:12;;;;;;;3.70;3.40;;;17.30;99.90;;;;;;5032789;28;20941;-59
2023/08/09 05:38:38;;;;;;;6.90;3.77;;;17.40;99.90;;;;;;5033012;28;20447;-59
2023/08/09 05:41:05;;;;;;;4.17;3.50;;;17.40;99.90;;;;;;5032960;28;20458;-59
2023/08/09 05:43:33;;;;;;;4.50;4.10;;;17.40;99.90;;;;;;5032706;28;20952;-59
2023/08/09 05:46:00;;;;;;;3.90;3.60;;;17.50;99.90;;;;;;5032971;28;20465;-59
2023/08/09 05:48:26;;;;;;;4.50;3.93;;;17.60;99.90;;;;;;5032935;28;20520;-59
2023/08/09 05:50:53;;;;;;;4.33;3.43;;;17.70;99.90;;;;;;5035042;28;21015;-59
2023/08/09 05:53:20;;;;;;;4.23;3.77;;;17.70;99.90;;;;;;5036771;28;20856;-59
2023/08/09 05:55:46;;;;;;;4.93;3.50;;;17.80;99.90;;;;;;5036693;28;20449;-59
2023/08/09 05:58:13;;;;;;;3.87;2.90;;;17.90;99.90;;;;;;5036624;28;20442;-59
2023/08/09 06:00:41;;;;;;;5.30;3.70;;;17.90;99.90;;;;;;5036580;28;20476;-59
2023/08/09 06:03:08;;;;;;;3.90;3.10;;;17.90;99.90;;;;;;5036264;28;20458;-59
2023/08/09 06:05:35;;;;;;;4.07;3.67;;;18.00;99.90;;;;;;5036527;28;20443;-59
2023/08/09 06:08:01;;;;;;;3.00;2.70;;;18.00;99.90;;;;;;5036410;28;20446;-59
2023/08/09 06:10:28;;;;;;;3.23;2.73;;;18.10;99.90;;;;;;5036234;28;20497;-59
2023/08/09 06:12:55;;;;;;;3.43;3.13;;;18.10;99.90;;;;;;5036243;28;20446;-59
2023/08/09 06:15:22;;;;;;;3.67;2.80;;;18.20;99.90;;;;;;5036331;28;20443;-59
2023/08/09 06:17:50;;;;;;;2.77;2.57;;;18.20;99.90;;;;;;5036348;28;20442;-59
2023/08/09 06:20:21;;;;;;;4.23;3.20;;;18.30;99.90;;;;;;5035997;28;20466;-59
2023/08/09 06:22:48;;;;;;;5.20;3.13;;;18.40;99.90;;;;;;5036232;28;20431;-59
2023/08/09 06:25:16;;;;;;;3.80;2.80;;;18.50;99.90;;;;;;5036150;28;20442;-59
2023/08/09 06:27:43;;;;;;;4.10;2.80;;;18.60;99.90;;;;;;5035966;28;20452;-60
2023/08/09 06:30:10;;;;;;;2.53;2.33;;;18.70;99.90;;;;;;5035486;28;20886;-59
2023/08/09 06:32:36;;;;;;;3.20;2.90;;;18.70;99.90;;;;;;5035859;28;20450;-59
2023/08/09 06:35:09;;;;;;;3.53;2.33;;;18.70;99.90;;;;;;5035624;28;20986;-59
2023/08/09 06:37:36;;;;;;;2.90;2.70;;;18.80;99.90;;;;;;5035933;28;20481;-59
2023/08/09 06:40:06;;;;;;;3.70;3.03;;;18.80;99.90;;;;;;5035717;28;20462;-60
2023/08/09 06:42:33;;;;;;;3.20;2.90;;;18.80;99.90;;;;;;5035944;28;20525;-60
2023/08/09 06:44:59;;;;;;;2.73;2.53;;;18.80;99.90;;;;;;5035827;28;20442;-59
2023/08/09 06:47:26;;;;;;;3.20;2.87;;;18.80;99.90;;;;;;5035816;28;20462;-59
2023/08/09 06:49:53;;;;;;;3.30;2.63;;;18.90;99.90;;;;;;5035536;28;20454;-59
2023/08/09 06:52:21;;;;;;;3.80;3.17;;;18.90;99.90;;;;;;5035720;28;20452;-59
2023/08/09 06:54:47;;;;;;;2.80;2.60;;;18.80;99.90;;;;;;5035300;28;20963;-60
2023/08/09 06:57:14;;;;;;;4.03;3.00;;;18.80;99.90;;;;;;5035600;28;20447;-59
2023/08/09 06:59:41;;;;;;;2.90;2.60;;;18.80;99.90;;;;;;5035432;28;20478;-59
2023/08/09 07:02:09;;;;;;;3.63;3.00;;;18.80;99.90;;;;;;5034023;28;20459;-59
2023/08/09 07:04:36;;;;;;;5.47;3.53;;;18.90;99.90;;;;;;5035471;28;20451;-59
2023/08/09 07:07:03;;;;;;;2.70;2.50;;;18.90;99.90;;;;;;5035330;28;20446;-59
2023/08/09 07:09:31;;;;;;;3.00;2.37;;;19.00;99.90;;;;;;5034956;28;20940;-59
2023/08/09 07:11:58;;;;;;;2.10;2.00;;;19.20;99.90;;;;;;5035104;28;20489;-60
2023/08/09 07:14:25;;;;;;;3.27;2.20;;;19.30;99.90;;;;;;5035176;28;20493;-59
2023/08/09 07:16:51;;;;;;;2.53;2.33;;;19.50;99.90;;;;;;5034723;28;20816;-59
2023/08/09 07:19:18;;;;;;;4.67;2.50;;;19.70;99.70;;;;;;5035073;28;20458;-60
2023/08/09 07:21:45;;;;;;;4.10;2.70;;;19.90;99.20;;;;;;5034984;28;20459;-60
2023/08/09 07:24:11;;;;;;;4.33;2.77;;;20.10;98.40;;;;;;5034682;28;20823;-60
2023/08/09 07:26:40;;;;;;;2.90;2.50;;;20.30;98.20;;;;;;5034691;28;20482;-60
2023/08/09 07:29:06;;;;;;;2.67;2.47;;;20.40;98.10;;;;;;5034888;28;20855;-60
2023/08/09 07:31:33;;;;;;;2.63;2.43;;;20.60;97.80;;;;;;5034667;28;20493;-59
2023/08/09 07:34:00;;;;;;;2.73;2.47;;;20.60;97.10;;;;;;5034443;28;20903;-59
2023/08/09 07:36:27;;;;;;;2.87;2.57;;;20.60;96.40;;;;;;5034241;28;20933;-59
2023/08/09 07:38:54;;;;;;;3.93;2.83;;;20.70;96.60;;;;;;5034635;28;20516;-59
2023/08/09 07:41:20;;;;;;;2.17;1.97;;;20.80;96.30;;;;;;5034532;28;20454;-59
2023/08/09 07:43:49;;;;;;;2.90;2.30;;;21.00;96.20;;;;;;5034566;28;20485;-59
2023/08/09 07:46:15;;;;;;;2.30;1.80;;;21.20;95.80;;;;;;5034565;28;20442;-59
2023/08/09 07:48:42;;;;;;;4.33;2.10;;;21.60;95.40;;;;;;5034521;28;20446;-60
2023/08/09 07:51:11;;;;;;;3.63;2.10;;;21.90;94.40;;;;;;5034210;28;20497;-60
2023/08/09 07:53:38;;;;;;;4.73;2.87;;;22.20;93.20;;;;;;5034138;28;20493;-59
2023/08/09 07:56:05;;;;;;;2.17;1.97;;;22.50;92.60;;;;;;5034322;28;20446;-58
2023/08/09 07:58:32;;;;;;;2.30;2.10;;;22.80;91.60;;;;;;5034364;28;20587;-58
2023/08/09 08:01:04;;;;;;;3.43;2.30;;;23.00;90.40;;;;;;5033977;28;21016;-58
2023/08/09 08:03:30;;;;;;;4.10;2.23;;;23.10;90.30;;;;;;5033871;28;20466;-58
2023/08/09 08:05:57;;;;;;;2.23;1.97;;;23.30;89.90;;;;;;5033874;28;20948;-58
2023/08/09 08:08:24;;;;;;;2.30;1.93;;;23.30;88.70;;;;;;5034112;28;20438;-58
2023/08/09 08:10:51;;;;;;;2.37;2.17;;;23.10;87.80;;;;;;5033946;28;20553;-58
2023/08/09 08:13:17;;;;;;;2.23;1.70;;;23.10;87.30;;;;;;5034485;28;20532;-58
2023/08/09 08:15:44;;;;;;;2.30;1.70;;;23.10;88.30;;;;;;5033775;28;20438;-58
2023/08/09 08:18:12;;;;;;;1.60;1.47;;;23.30;88.30;;;;;;5033996;28;20546;-58
2023/08/09 08:20:39;;;;;;;3.60;2.20;;;23.30;87.50;;;;;;5033928;28;20466;-58
2023/08/09 08:23:06;;;;;;;7.87;3.10;;;23.30;87.10;;;;;;5033867;28;20454;-58
2023/08/09 08:25:33;;;;;;;5.70;2.20;;;23.20;86.60;;;;;;5033872;28;20524;-58
2023/08/09 08:28:00;;;;;;;4.13;2.33;;;23.10;86.50;;;;;;5033789;28;20438;-58
2023/08/09 08:30:27;;;;;;;2.57;1.90;;;23.00;87.10;;;;;;5033617;28;20498;-57
2023/08/09 08:32:54;;;;;;;2.67;2.43;;;23.00;87.90;;;;;;5033750;28;20450;-58
2023/08/09 08:35:24;;;;;;;2.00;1.90;;;23.00;87.30;;;;;;5033693;28;20443;-58
2023/08/09 08:37:53;;;;;;;2.60;1.80;;;23.10;87.10;;;;;;5033738;28;20506;-58
2023/08/09 08:40:21;;;;;;;2.10;1.87;;;23.30;86.90;;;;;;5033540;28;20473;-58
2023/08/09 08:42:48;;;;;;;2.77;1.67;;;23.50;88.10;;;;;;5033572;28;20489;-58
2023/08/09 08:45:15;;;;;;;8.70;2.07;;;23.80;87.90;;;;;;5033532;28;20517;-58
2023/08/09 08:47:43;;;;;;;3.07;1.67;;;24.20;87.00;;;;;;5033255;28;20959;-58
2023/08/09 08:50:14;;;;;;;7.33;2.03;;;24.50;84.60;;;;;;5033386;28;20459;-58
2023/08/09 08:52:44;;;;;;;3.50;2.10;;;24.80;82.10;;;;;;5033401;28;20568;-58
2023/08/09 08:55:12;;;;;;;5.60;1.93;;;25.10;79.60;;;;;;5033151;28;20932;-58
2023/08/09 08:57:39;;;;;;;2.53;1.77;;;25.40;77.80;;;;;;5033372;28;20871;-58
2023/08/09 09:00:15;;;;;;;3.03;1.93;;;25.70;76.00;;;;;;5032973;28;20537;-58
2023/08/09 09:02:43;;;;;;;2.73;2.23;;;26.10;74.40;;;;;;5033052;28;20537;-58
2023/08/09 09:05:10;;;;;;;2.90;2.10;;;26.40;69.80;;;;;;5033284;28;20457;-58
2023/08/09 09:07:37;;;;;;;2.63;2.03;;;26.70;65.60;;;;;;5033312;28;20477;-58
2023/08/09 09:10:06;;;;;;;6.80;1.90;;;26.90;62.70;;;;;;5033249;28;20494;-58
2023/08/09 09:12:35;;;;;;;1.87;1.63;;;27.20;63.20;;;;;;5033266;28;20478;-58
2023/08/09 09:15:04;;;;;;;3.87;2.10;;;27.50;64.20;;;;;;5033291;28;20446;-58
2023/08/09 09:17:31;;;;;;;2.80;2.03;;;27.80;62.60;;;;;;5034010;28;20458;-58
2023/08/09 09:19:58;;;;;;;2.33;2.13;;;28.00;59.80;;;;;;5033132;28;20468;-58
2023/08/09 09:22:27;;;;;;;2.50;2.00;;;28.00;57.80;;;;;;5033211;28;20450;-58
2023/08/09 09:24:58;;;;;;;3.97;2.20;;;27.90;55.60;;;;;;5034129;28;20482;-58
2023/08/09 09:27:29;;;;;;;2.73;1.83;;;27.70;56.90;;;;;;5036962;28;20915;-58
2023/08/09 09:29:56;;;;;;;3.13;1.73;;;27.60;57.40;;;;;;5037099;28;20427;-58
2023/08/09 09:32:22;;;;;;;4.20;1.50;;;27.60;55.20;;;;;;5036985;28;20478;-58
2023/08/09 09:34:51;;;;;;;3.00;1.30;;;27.50;55.80;;;;;;5037083;28;20446;-58
2023/08/09 09:37:23;;;;;;;5.40;2.17;;;27.60;57.20;;;;;;5037022;28;20446;-58
2023/08/09 09:39:51;;;;;;;4.00;2.00;;;27.70;56.10;;;;;;5036904;28;20426;-58
2023/08/09 09:42:18;;;;;;;3.13;1.70;;;27.80;56.50;;;;;;5037429;28;20478;-58
2023/08/09 09:44:47;;;;;;;3.03;1.83;;;28.00;55.60;;;;;;5036892;28;20442;-58
2023/08/09 09:47:13;;;;;;;3.10;1.50;;;28.10;53.70;;;;;;5036852;28;20443;-58
2023/08/09 09:49:52;;;;;;;5.30;1.63;;;28.10;53.10;;;;;;5036671;28;20550;-58
2023/08/09 09:52:20;;;;;;;4.77;1.47;;;28.20;53.30;;;;;;5036789;28;20502;-58
2023/08/09 09:54:47;;;;;;;2.10;1.40;;;28.30;50.00;;;;;;5036808;28;20443;-58
2023/08/09 09:57:14;;;;;;;2.00;1.37;;;28.20;49.50;;;;;;5036981;28;20449;-58
2023/08/09 09:59:41;;;;;;;6.83;1.63;;;28.10;51.50;;;;;;5036737;28;20818;-58
2023/08/09 10:02:11;;;;;;;1.90;1.30;;;27.90;50.80;;;;;;5036535;28;20453;-58
2023/08/09 10:04:39;;;;;;;3.20;1.23;;;27.70;50.00;;;;;;5036687;28;20488;-58
2023/08/09 10:07:07;;;;;;;2.13;1.10;;;27.80;50.40;;;;;;5036534;28;20452;-58
2023/08/09 10:09:35;;;;;;;2.47;1.20;;;28.00;50.40;;;;;;5036590;28;20533;-58
2023/08/09 10:12:04;;;;;;;2.40;0.90;;;28.40;50.50;;;;;;5035884;28;20887;-58
2023/08/09 10:14:32;;;;;;;3.07;1.70;;;29.00;49.90;;;;;;5036486;28;20485;-58
2023/08/09 10:17:00;;;;;;;3.23;1.37;;;29.60;48.70;;;;;;5036521;28;20442;-58
2023/08/09 10:19:29;;;;;;;1.57;1.17;;;30.00;46.20;;;;;;5036272;28;20452;-58
2023/08/09 10:21:56;;;;;;;3.17;1.50;;;30.30;45.60;;;;;;5035929;28;21118;-58
2023/08/09 10:24:25;;;;;;;1.80;1.43;;;30.70;43.60;;;;;;5036097;28;20445;-58
2023/08/09 10:26:54;;;;;;;2.60;1.40;;;31.00;42.00;;;;;;5036066;28;20477;-58
2023/08/09 10:29:23;;;;;;;2.63;1.30;;;31.50;41.50;;;;;;5036111;28;20446;-58
2023/08/09 10:31:55;;;;;;;1.97;1.10;;;31.90;39.30;;;;;;5035909;28;20542;-58
2023/08/09 10:34:23;;;;;;;1.53;1.20;;;31.90;38.20;;;;;;5036084;28;20426;-58
2023/08/09 10:36:54;;;;;;;2.87;1.50;;;31.80;40.40;;;;;;5035602;28;20787;-58
2023/08/09 10:39:22;;;;;;;2.00;1.10;;;31.60;39.50;;;;;;5036108;28;20426;-58
2023/08/09 10:41:57;;;;;;;3.00;1.40;;;31.00;38.70;;;;;;5035631;28;21018;-58
2023/08/09 10:44:35;;;;;;;2.10;1.13;;;30.60;40.10;;;;;;5035945;28;20541;-58
2023/08/09 10:47:03;;;;;;;1.43;1.10;;;30.40;41.80;;;;;;5035425;28;20932;-58
2023/08/09 10:50:00;;;;;;;5.40;1.50;;;30.30;41.30;;;;;;5035738;28;20457;-57
2023/08/09 10:52:35;;;;;;;1.53;1.23;;;30.30;40.30;;;;;;5035329;28;20474;-57
2023/08/09 10:55:36;;;;;;;2.30;1.10;;;30.20;41.60;;;;;;5035726;28;20437;-57
2023/08/09 10:58:02;;;;;;;1.60;1.13;;;29.90;41.50;;;;;;5035696;28;20418;-57
2023/08/09 11:00:39;;;;;;;2.50;1.10;;;29.90;41.00;;;;;;5035387;28;20454;-57
2023/08/09 11:03:06;;;;;;;3.90;1.03;;;29.90;40.50;;;;;;5035170;28;20448;-57
2023/08/09 11:05:33;;;;;;;4.50;1.30;;;30.00;42.50;;;;;;5034950;28;20481;-57
2023/08/09 11:08:11;;;;;;;2.23;1.40;;;30.00;43.20;;;;;;5021106;28;20438;-58
2023/08/09 11:10:39;;;;;;;1.67;1.10;;;30.20;44.00;;;;;;5034980;28;20462;-57
2023/08/09 11:13:08;;;;;;;2.43;1.13;;;30.30;42.90;;;;;;5035187;28;20492;-57
2023/08/09 11:15:36;;;;;;;2.77;1.00;;;30.30;41.00;;;;;;5035406;28;20468;-57
2023/08/09 11:18:04;;;;;;;2.73;1.37;;;30.50;41.60;;;;;;5035321;28;20441;-57
2023/08/09 11:20:31;;;;;;;1.50;1.00;;;30.70;40.60;;;;;;5034918;28;20473;-57
2023/08/09 11:23:00;;;;;;;2.43;1.30;;;30.90;39.40;;;;;;5035167;28;20443;-57
2023/08/09 11:25:31;;;;;;;3.83;1.10;;;31.00;40.50;;;;;;5035159;28;20532;-57
2023/08/09 11:28:00;;;;;;;1.40;1.23;;;31.10;39.90;;;;;;5034870;28;20426;-57
2023/08/09 11:30:29;;;;;;;1.73;1.23;;;31.20;39.50;;;;;;5034989;28;20461;-57
2023/08/09 11:32:57;;;;;;;3.80;1.30;;;31.20;39.50;;;;;;5035242;28;20481;-57
2023/08/09 11:35:30;;;;;;;1.60;1.30;;;31.00;40.10;;;;;;5034628;28;20962;-58
2023/08/09 11:37:58;;;;;;;1.67;1.10;;;30.90;39.70;;;;;;5034984;28;20533;-57
2023/08/09 11:40:24;;;;;;;4.30;1.30;;;31.00;38.10;;;;;;5034378;28;20981;-57
2023/08/09 11:42:59;;;;;;;1.13;1.03;;;31.60;39.00;;;;;;5034748;28;20507;-57
2023/08/09 11:45:26;;;;;;;1.93;1.17;;;32.70;36.90;;;;;;5034323;28;20961;-58
2023/08/09 11:47:54;;;;;;;2.03;1.40;;;33.90;35.60;;;;;;5033916;28;20450;-57
2023/08/09 11:50:22;;;;;;;1.37;1.27;;;34.90;33.10;;;;;;5034532;28;20466;-57
2023/08/09 11:52:53;;;;;;;1.90;1.60;;;35.20;32.70;;;;;;5034459;28;20888;-58
2023/08/09 11:55:20;;;;;;;1.87;1.20;;;34.90;34.30;;;;;;5034503;28;20638;-57
2023/08/09 11:57:46;;;;;;;1.70;1.40;;;34.50;35.60;;;;;;5034446;28;20203;-57
2023/08/09 12:00:16;;;;;;;1.33;1.23;;;34.20;35.10;;;;;;5034121;28;20934;-58
2023/08/09 12:02:42;;;;;;;1.47;1.23;;;34.00;33.80;;;;;;5034069;28;20478;-57
2023/08/09 12:05:10;;;;;;;2.87;1.53;;;33.70;33.60;;;;;;5034351;28;20453;-57
2023/08/09 12:07:37;;;;;;;3.50;2.00;;;33.10;34.50;;;;;;5034289;28;20477;-57
2023/08/09 12:10:04;;;;;;;2.13;1.90;;;32.20;35.20;;;;;;5034149;28;20465;-57
2023/08/09 12:12:37;;;;;;;3.30;1.50;;;31.50;34.70;;;;;;5033803;28;20990;-57
2023/08/09 12:15:04;;;;;;;2.40;2.10;;;31.10;34.00;;;;;;5034931;28;20426;-57
2023/08/09 12:17:33;;;;;;;3.80;1.63;;;31.00;36.60;;;;;;5034709;28;20488;-57
2023/08/09 12:20:02;;;;;;;2.37;1.60;;;30.90;35.50;;;;;;5034012;28;20831;-57
2023/08/09 12:22:29;;;;;;;1.60;1.27;;;31.10;36.00;;;;;;5033716;28;20978;-57
2023/08/09 12:24:57;;;;;;;4.50;1.30;;;31.60;35.60;;;;;;5033920;28;20457;-57
2023/08/09 12:27:25;;;;;;;1.83;1.10;;;32.20;33.00;;;;;;5033854;28;20481;-57
2023/08/09 12:29:52;;;;;;;3.03;1.77;;;32.70;33.00;;;;;;5033458;28;20452;-57
2023/08/09 12:32:20;;;;;;;2.10;1.70;;;33.60;32.00;;;;;;5033733;28;20486;-57
2023/08/09 12:34:49;;;;;;;2.93;1.43;;;34.60;30.20;;;;;;5034330;28;20540;-57
2023/08/09 12:37:16;;;;;;;1.50;1.40;;;35.20;28.60;;;;;;5033700;28;20450;-57
2023/08/09 12:39:43;;;;;;;2.23;1.40;;;35.90;29.00;;;;;;5033703;28;20203;-57
2023/08/09 12:42:10;;;;;;;2.67;1.50;;;36.80;28.10;;;;;;5033665;28;20199;-58
2023/08/09 12:44:38;;;;;;;2.13;1.20;;;37.70;27.10;;;;;;5033505;28;20199;-58
2023/08/09 12:47:05;;;;;;;3.58;1.40;;;38.60;24.30;;;;;;5033280;28;20656;-58
2023/08/09 12:49:32;;;;;;;2.63;1.27;;;39.00;24.50;;;;;;5033598;28;20199;-58
2023/08/09 12:52:00;;;;;;;2.75;1.40;;;39.60;24.70;;;;;;5033435;28;20219;-58